sensor_id;sensor_type;location;lat;lon;timestamp;temperature;humidity
13980;DHT22;73871;49.900;8.594;2023-11-19T00:00:08;8.50;99.90
13980;DHT22;73871;49.900;8.594;2023-11-19T00:02:39;8.50;99.90
13980;DHT22;73871;49.900;8.594;2023-11-19T00:05:06;8.50;99.90
13980;DHT22;73871;49.900;8.594;2023-11-19T00:07:36;8.60;99.90
13980;DHT22;73871;49.900;8.594;2023-11-19T00:10:03;8.60;99.90
13980;DHT22;73871;49.900;8.594;2023-11-19T00:12:33;8.60;99.90
13980;DHT22;73871;49.900;8.594;2023-11-19T00:15:00;8.60;99.90
13980;DHT22;73871;49.900;8.594;2023-11-19T00:17:27;8.60;99.90
13980;DHT22;73871;49.900;8.594;2023-11-19T00:19:53;8.60;99.90
13980;DHT22;73871;49.900;8.594;2023-11-19T00:22:20;8.60;99.90
13980;DHT22;73871;49.900;8.594;2023-11-19T00:24:48;8.60;99.90
13980;DHT22;73871;49.900;8.594;2023-11-19T00:27:15;8.60;99.90
13980;DHT22;73871;49.900;8.594;2023-11-19T00:29:42;8.70;99.90
13980;DHT22;73871;49.900;8.594;2023-11-19T00:32:12;8.60;99.90
13980;DHT22;73871;49.900;8.594;2023-11-19T00:34:39;8.70;99.90
13980;DHT22;73871;49.900;8.594;2023-11-19T00:37:06;8.70;99.90
13980;DHT22;73871;49.900;8.594;2023-11-19T00:39:33;8.70;99.90
13980;DHT22;73871;49.900;8.594;2023-11-19T00:42:00;8.70;99.90
13980;DHT22;73871;49.900;8.594;2023-11-19T00:44:27;8.70;99.90
13980;DHT22;73871;49.900;8.594;2023-11-19T00:46:53;8.70;99.90
13980;DHT22;73871;49.900;8.594;2023-11-19T00:49:20;8.80;99.90
13980;DHT22;73871;49.900;8.594;2023-11-19T00:51:47;8.80;99.90
13980;DHT22;73871;49.900;8.594;2023-11-19T00:54:14;8.70;99.90
13980;DHT22;73871;49.900;8.594;2023-11-19T00:56:40;8.80;99.90
13980;DHT22;73871;49.900;8.594;2023-11-19T00:59:07;8.80;99.90
13980;DHT22;73871;49.900;8.594;2023-11-19T01:01:34;8.80;99.90
13980;DHT22;73871;49.900;8.594;2023-11-19T01:04:02;8.90;99.90
13980;DHT22;73871;49.900;8.594;2023-11-19T01:06:32;8.90;99.90
13980;DHT22;73871;49.900;8.594;2023-11-19T01:08:59;8.90;99.90
13980;DHT22;73871;49.900;8.594;2023-11-19T01:11:26;8.90;99.90
13980;DHT22;73871;49.900;8.594;2023-11-19T01:13:53;8.80;99.90
13980;DHT22;73871;49.900;8.594;2023-11-19T01:16:20;8.90;99.90
13980;DHT22;73871;49.900;8.594;2023-11-19T01:18:48;8.90;99.90
13980;DHT22;73871;49.900;8.594;2023-11-19T01:21:15;8.90;99.90
13980;DHT22;73871;49.900;8.594;2023-11-19T01:23:42;9.00;99.90
13980;DHT22;73871;49.900;8.594;2023-11-19T01:26:12;9.00;99.90
13980;DHT22;73871;49.900;8.594;2023-11-19T01:28:40;9.00;99.90
13980;DHT22;73871;49.900;8.594;2023-11-19T01:31:18;9.00;99.90
13980;DHT22;73871;49.900;8.594;2023-11-19T01:33:45;9.00;99.90
13980;DHT22;73871;49.900;8.594;2023-11-19T01:36:13;9.00;99.90
13980;DHT22;73871;49.900;8.594;2023-11-19T01:38:41;9.00;99.90
13980;DHT22;73871;49.900;8.594;2023-11-19T01:41:08;9.00;99.90
13980;DHT22;73871;49.900;8.594;2023-11-19T01:43:37;9.00;99.90
13980;DHT22;73871;49.900;8.594;2023-11-19T01:46:05;9.00;99.90
13980;DHT22;73871;49.900;8.594;2023-11-19T01:48:34;9.00;99.90
13980;DHT22;73871;49.900;8.594;2023-11-19T01:51:03;9.00;99.90
13980;DHT22;73871;49.900;8.594;2023-11-19T01:53:30;9.10;99.90
13980;DHT22;73871;49.900;8.594;2023-11-19T01:55:59;9.10;99.90
13980;DHT22;73871;49.900;8.594;2023-11-19T01:58:26;9.10;99.90
13980;DHT22;73871;49.900;8.594;2023-11-19T02:00:53;9.10;99.90
13980;DHT22;73871;49.900;8.594;2023-11-19T02:03:21;9.10;99.90
13980;DHT22;73871;49.900;8.594;2023-11-19T02:05:48;9.10;99.90
13980;DHT22;73871;49.900;8.594;2023-11-19T02:08:16;9.20;99.90
13980;DHT22;73871;49.900;8.594;2023-11-19T02:10:42;9.20;99.90
13980;DHT22;73871;49.900;8.594;2023-11-19T02:13:11;9.30;99.90
13980;DHT22;73871;49.900;8.594;2023-11-19T02:15:41;9.30;99.90
13980;DHT22;73871;49.900;8.594;2023-11-19T02:18:24;9.30;99.90
13980;DHT22;73871;49.900;8.594;2023-11-19T02:20:58;9.40;99.90
13980;DHT22;73871;49.900;8.594;2023-11-19T02:23:30;9.50;99.90
13980;DHT22;73871;49.900;8.594;2023-11-19T02:26:14;9.50;99.90
13980;DHT22;73871;49.900;8.594;2023-11-19T02:28:42;9.40;99.90
13980;DHT22;73871;49.900;8.594;2023-11-19T02:31:10;9.40;99.90
13980;DHT22;73871;49.900;8.594;2023-11-19T02:33:38;9.40;99.90
13980;DHT22;73871;49.900;8.594;2023-11-19T02:36:06;9.40;99.90
13980;DHT22;73871;49.900;8.594;2023-11-19T02:38:34;9.50;99.90
13980;DHT22;73871;49.900;8.594;2023-11-19T02:41:06;9.50;99.90
13980;DHT22;73871;49.900;8.594;2023-11-19T02:43:34;9.50;99.90
13980;DHT22;73871;49.900;8.594;2023-11-19T02:46:02;9.50;99.90
13980;DHT22;73871;49.900;8.594;2023-11-19T02:48:41;9.50;99.90
13980;DHT22;73871;49.900;8.594;2023-11-19T02:51:10;9.60;99.90
13980;DHT22;73871;49.900;8.594;2023-11-19T02:53:37;9.50;99.90
13980;DHT22;73871;49.900;8.594;2023-11-19T02:56:06;9.60;99.90
13980;DHT22;73871;49.900;8.594;2023-11-19T02:58:46;9.60;99.90
13980;DHT22;73871;49.900;8.594;2023-11-19T03:01:14;9.60;99.90
13980;DHT22;73871;49.900;8.594;2023-11-19T03:03:51;9.60;99.90
13980;DHT22;73871;49.900;8.594;2023-11-19T03:06:23;9.70;99.90
13980;DHT22;73871;49.900;8.594;2023-11-19T03:08:50;9.70;99.90
13980;DHT22;73871;49.900;8.594;2023-11-19T03:11:17;9.60;99.90
13980;DHT22;73871;49.900;8.594;2023-11-19T03:13:44;9.60;99.90
13980;DHT22;73871;49.900;8.594;2023-11-19T03:16:11;9.70;99.90
13980;DHT22;73871;49.900;8.594;2023-11-19T03:18:38;9.70;99.90
13980;DHT22;73871;49.900;8.594;2023-11-19T03:21:06;9.70;99.90
13980;DHT22;73871;49.900;8.594;2023-11-19T03:23:35;9.80;99.90
13980;DHT22;73871;49.900;8.594;2023-11-19T03:26:02;9.80;99.90
13980;DHT22;73871;49.900;8.594;2023-11-19T03:28:32;9.80;99.90
13980;DHT22;73871;49.900;8.594;2023-11-19T03:30:59;9.80;99.90
13980;DHT22;73871;49.900;8.594;2023-11-19T03:33:26;9.80;99.90
13980;DHT22;73871;49.900;8.594;2023-11-19T03:35:56;9.70;99.90
13980;DHT22;73871;49.900;8.594;2023-11-19T03:38:24;9.70;99.90
13980;DHT22;73871;49.900;8.594;2023-11-19T03:40:53;9.70;99.90
13980;DHT22;73871;49.900;8.594;2023-11-19T03:43:20;9.60;99.90
13980;DHT22;73871;49.900;8.594;2023-11-19T03:45:47;9.60;99.90
13980;DHT22;73871;49.900;8.594;2023-11-19T03:48:14;9.60;99.90
13980;DHT22;73871;49.900;8.594;2023-11-19T03:50:43;9.60;99.90
13980;DHT22;73871;49.900;8.594;2023-11-19T03:53:11;9.60;99.90
13980;DHT22;73871;49.900;8.594;2023-11-19T03:55:44;9.60;99.90
13980;DHT22;73871;49.900;8.594;2023-11-19T03:58:11;9.70;99.90
13980;DHT22;73871;49.900;8.594;2023-11-19T04:00:39;9.70;99.90
13980;DHT22;73871;49.900;8.594;2023-11-19T04:03:07;9.70;99.90
13980;DHT22;73871;49.900;8.594;2023-11-19T04:05:34;9.70;99.90
13980;DHT22;73871;49.900;8.594;2023-11-19T04:08:00;9.70;99.90
13980;DHT22;73871;49.900;8.594;2023-11-19T04:10:27;9.70;99.90
13980;DHT22;73871;49.900;8.594;2023-11-19T04:12:56;9.70;99.90
13980;DHT22;73871;49.900;8.594;2023-11-19T04:15:22;9.80;99.90
13980;DHT22;73871;49.900;8.594;2023-11-19T04:17:50;9.80;99.90
13980;DHT22;73871;49.900;8.594;2023-11-19T04:20:17;9.70;99.90
13980;DHT22;73871;49.900;8.594;2023-11-19T04:22:44;9.80;99.90
13980;DHT22;73871;49.900;8.594;2023-11-19T04:25:11;9.80;99.90
13980;DHT22;73871;49.900;8.594;2023-11-19T04:27:38;9.80;99.90
13980;DHT22;73871;49.900;8.594;2023-11-19T04:30:06;9.80;99.90
13980;DHT22;73871;49.900;8.594;2023-11-19T04:32:37;9.80;99.90
13980;DHT22;73871;49.900;8.594;2023-11-19T04:35:04;9.80;99.90
13980;DHT22;73871;49.900;8.594;2023-11-19T04:37:31;9.90;99.90
13980;DHT22;73871;49.900;8.594;2023-11-19T04:39:58;9.90;99.90
13980;DHT22;73871;49.900;8.594;2023-11-19T04:42:26;9.80;99.90
13980;DHT22;73871;49.900;8.594;2023-11-19T04:44:53;9.80;99.90
13980;DHT22;73871;49.900;8.594;2023-11-19T04:47:20;9.90;99.90
13980;DHT22;73871;49.900;8.594;2023-11-19T04:49:46;9.90;99.90
13980;DHT22;73871;49.900;8.594;2023-11-19T04:52:13;9.90;99.90
13980;DHT22;73871;49.900;8.594;2023-11-19T04:54:43;10.00;99.90
13980;DHT22;73871;49.900;8.594;2023-11-19T04:57:12;9.90;99.90
13980;DHT22;73871;49.900;8.594;2023-11-19T04:59:38;10.00;99.90
13980;DHT22;73871;49.900;8.594;2023-11-19T05:02:05;10.00;99.90
13980;DHT22;73871;49.900;8.594;2023-11-19T05:04:32;10.00;99.90
13980;DHT22;73871;49.900;8.594;2023-11-19T05:06:59;10.10;99.90
13980;DHT22;73871;49.900;8.594;2023-11-19T05:09:26;10.00;99.90
13980;DHT22;73871;49.900;8.594;2023-11-19T05:11:53;10.00;99.90
13980;DHT22;73871;49.900;8.594;2023-11-19T05:14:20;10.10;99.90
13980;DHT22;73871;49.900;8.594;2023-11-19T05:16:48;10.10;99.90
13980;DHT22;73871;49.900;8.594;2023-11-19T05:19:14;10.00;99.90
13980;DHT22;73871;49.900;8.594;2023-11-19T05:21:42;10.10;99.90
13980;DHT22;73871;49.900;8.594;2023-11-19T05:24:10;10.10;99.90
13980;DHT22;73871;49.900;8.594;2023-11-19T05:26:38;10.10;99.90
13980;DHT22;73871;49.900;8.594;2023-11-19T05:29:05;10.10;99.90
13980;DHT22;73871;49.900;8.594;2023-11-19T05:31:32;10.20;99.90
13980;DHT22;73871;49.900;8.594;2023-11-19T05:34:02;10.20;99.90
13980;DHT22;73871;49.900;8.594;2023-11-19T05:36:30;10.30;99.90
13980;DHT22;73871;49.900;8.594;2023-11-19T05:38:56;10.30;99.90
13980;DHT22;73871;49.900;8.594;2023-11-19T05:41:23;10.30;99.90
13980;DHT22;73871;49.900;8.594;2023-11-19T05:43:50;10.30;99.90
13980;DHT22;73871;49.900;8.594;2023-11-19T05:46:18;10.30;99.90
13980;DHT22;73871;49.900;8.594;2023-11-19T05:48:46;10.30;99.90
13980;DHT22;73871;49.900;8.594;2023-11-19T05:51:14;10.30;99.90
13980;DHT22;73871;49.900;8.594;2023-11-19T05:53:42;10.40;99.90
13980;DHT22;73871;49.900;8.594;2023-11-19T05:56:09;10.40;99.90
13980;DHT22;73871;49.900;8.594;2023-11-19T05:58:36;10.40;99.90
13980;DHT22;73871;49.900;8.594;2023-11-19T06:01:04;10.40;99.90
13980;DHT22;73871;49.900;8.594;2023-11-19T06:03:33;10.40;99.90
13980;DHT22;73871;49.900;8.594;2023-11-19T06:06:00;10.40;99.90
13980;DHT22;73871;49.900;8.594;2023-11-19T06:08:27;10.40;99.90
13980;DHT22;73871;49.900;8.594;2023-11-19T06:10:53;10.40;99.90
13980;DHT22;73871;49.900;8.594;2023-11-19T06:13:20;10.40;99.90
13980;DHT22;73871;49.900;8.594;2023-11-19T06:15:51;10.40;99.90
13980;DHT22;73871;49.900;8.594;2023-11-19T06:18:18;10.40;99.90
13980;DHT22;73871;49.900;8.594;2023-11-19T06:20:46;10.50;99.90
13980;DHT22;73871;49.900;8.594;2023-11-19T06:23:13;10.40;99.90
13980;DHT22;73871;49.900;8.594;2023-11-19T06:25:40;10.40;99.90
13980;DHT22;73871;49.900;8.594;2023-11-19T06:28:07;10.50;99.90
13980;DHT22;73871;49.900;8.594;2023-11-19T06:30:34;10.40;99.90
13980;DHT22;73871;49.900;8.594;2023-11-19T06:33:02;10.50;99.90
13980;DHT22;73871;49.900;8.594;2023-11-19T06:35:30;10.50;99.90
13980;DHT22;73871;49.900;8.594;2023-11-19T06:38:03;10.50;99.90
13980;DHT22;73871;49.900;8.594;2023-11-19T06:40:31;10.50;99.90
13980;DHT22;73871;49.900;8.594;2023-11-19T06:43:00;10.50;99.90
13980;DHT22;73871;49.900;8.594;2023-11-19T06:45:27;10.50;99.90
13980;DHT22;73871;49.900;8.594;2023-11-19T06:47:53;10.60;99.90
13980;DHT22;73871;49.900;8.594;2023-11-19T06:50:20;10.50;99.90
13980;DHT22;73871;49.900;8.594;2023-11-19T06:52:47;10.60;99.90
13980;DHT22;73871;49.900;8.594;2023-11-19T06:55:14;10.60;99.90
13980;DHT22;73871;49.900;8.594;2023-11-19T06:57:41;10.60;99.90
13980;DHT22;73871;49.900;8.594;2023-11-19T07:00:09;10.70;99.90
13980;DHT22;73871;49.900;8.594;2023-11-19T07:02:37;10.70;99.90
13980;DHT22;73871;49.900;8.594;2023-11-19T07:05:05;10.70;99.90
13980;DHT22;73871;49.900;8.594;2023-11-19T07:07:32;10.70;99.90
13980;DHT22;73871;49.900;8.594;2023-11-19T07:09:59;10.80;99.90
13980;DHT22;73871;49.900;8.594;2023-11-19T07:12:26;10.80;99.90
13980;DHT22;73871;49.900;8.594;2023-11-19T07:14:53;10.80;99.90
13980;DHT22;73871;49.900;8.594;2023-11-19T07:17:21;10.80;99.90
13980;DHT22;73871;49.900;8.594;2023-11-19T07:19:49;10.70;99.90
13980;DHT22;73871;49.900;8.594;2023-11-19T07:22:16;10.70;99.90
13980;DHT22;73871;49.900;8.594;2023-11-19T07:24:44;10.70;99.90
13980;DHT22;73871;49.900;8.594;2023-11-19T07:27:10;10.80;99.90
13980;DHT22;73871;49.900;8.594;2023-11-19T07:29:37;10.80;99.90
13980;DHT22;73871;49.900;8.594;2023-11-19T07:32:05;10.90;99.90
13980;DHT22;73871;49.900;8.594;2023-11-19T07:34:32;10.80;99.90
13980;DHT22;73871;49.900;8.594;2023-11-19T07:36:58;10.80;99.90
13980;DHT22;73871;49.900;8.594;2023-11-19T07:39:29;10.70;99.90
13980;DHT22;73871;49.900;8.594;2023-11-19T07:41:56;10.80;99.90
13980;DHT22;73871;49.900;8.594;2023-11-19T07:44:24;10.80;99.90
13980;DHT22;73871;49.900;8.594;2023-11-19T07:46:51;10.90;99.90
13980;DHT22;73871;49.900;8.594;2023-11-19T07:49:18;10.90;99.90
13980;DHT22;73871;49.900;8.594;2023-11-19T07:51:44;11.00;99.90
13980;DHT22;73871;49.900;8.594;2023-11-19T07:54:11;11.00;99.90
13980;DHT22;73871;49.900;8.594;2023-11-19T07:56:38;11.10;99.90
13980;DHT22;73871;49.900;8.594;2023-11-19T07:59:05;11.10;99.90
13980;DHT22;73871;49.900;8.594;2023-11-19T08:01:33;11.10;99.90
13980;DHT22;73871;49.900;8.594;2023-11-19T08:03:59;11.20;99.90
13980;DHT22;73871;49.900;8.594;2023-11-19T08:06:28;11.20;99.90
13980;DHT22;73871;49.900;8.594;2023-11-19T08:08:55;11.30;99.90
13980;DHT22;73871;49.900;8.594;2023-11-19T08:11:22;11.30;99.90
13980;DHT22;73871;49.900;8.594;2023-11-19T08:13:50;11.30;99.90
13980;DHT22;73871;49.900;8.594;2023-11-19T08:16:17;11.30;99.90
13980;DHT22;73871;49.900;8.594;2023-11-19T08:18:44;11.40;99.90
13980;DHT22;73871;49.900;8.594;2023-11-19T08:21:11;11.40;99.90
13980;DHT22;73871;49.900;8.594;2023-11-19T08:23:38;11.40;99.90
13980;DHT22;73871;49.900;8.594;2023-11-19T08:26:05;11.50;99.90
13980;DHT22;73871;49.900;8.594;2023-11-19T08:28:33;11.50;99.90
13980;DHT22;73871;49.900;8.594;2023-11-19T08:31:02;11.60;99.90
13980;DHT22;73871;49.900;8.594;2023-11-19T08:33:31;11.70;99.90
13980;DHT22;73871;49.900;8.594;2023-11-19T08:35:58;11.80;99.90
13980;DHT22;73871;49.900;8.594;2023-11-19T08:38:25;11.80;99.90
13980;DHT22;73871;49.900;8.594;2023-11-19T08:40:55;12.00;99.90
13980;DHT22;73871;49.900;8.594;2023-11-19T08:43:26;12.10;99.90
13980;DHT22;73871;49.900;8.594;2023-11-19T08:45:53;12.20;99.90
13980;DHT22;73871;49.900;8.594;2023-11-19T08:48:20;12.20;99.90
13980;DHT22;73871;49.900;8.594;2023-11-19T08:50:47;12.30;99.90
13980;DHT22;73871;49.900;8.594;2023-11-19T08:53:14;12.20;99.90
13980;DHT22;73871;49.900;8.594;2023-11-19T08:55:41;12.20;99.90
13980;DHT22;73871;49.900;8.594;2023-11-19T08:58:08;12.20;99.90
13980;DHT22;73871;49.900;8.594;2023-11-19T09:00:35;12.20;99.90
13980;DHT22;73871;49.900;8.594;2023-11-19T09:03:03;12.20;99.90
13980;DHT22;73871;49.900;8.594;2023-11-19T09:05:30;12.30;99.90
13980;DHT22;73871;49.900;8.594;2023-11-19T09:07:58;12.40;99.90
13980;DHT22;73871;49.900;8.594;2023-11-19T09:10:25;12.40;99.90
13980;DHT22;73871;49.900;8.594;2023-11-19T09:12:53;12.50;99.90
13980;DHT22;73871;49.900;8.594;2023-11-19T09:15:22;12.60;99.90
13980;DHT22;73871;49.900;8.594;2023-11-19T09:17:49;12.60;99.90
13980;DHT22;73871;49.900;8.594;2023-11-19T09:20:16;12.70;99.90
13980;DHT22;73871;49.900;8.594;2023-11-19T09:22:43;12.70;99.90
13980;DHT22;73871;49.900;8.594;2023-11-19T09:25:09;12.60;99.90
13980;DHT22;73871;49.900;8.594;2023-11-19T09:27:36;12.90;99.90
13980;DHT22;73871;49.900;8.594;2023-11-19T09:30:04;14.20;99.90
13980;DHT22;73871;49.900;8.594;2023-11-19T09:32:31;14.10;99.90
13980;DHT22;73871;49.900;8.594;2023-11-19T09:34:58;13.70;99.90
13980;DHT22;73871;49.900;8.594;2023-11-19T09:37:24;13.40;99.90
13980;DHT22;73871;49.900;8.594;2023-11-19T09:39:51;13.30;99.90
13980;DHT22;73871;49.900;8.594;2023-11-19T09:42:19;13.10;99.90
13980;DHT22;73871;49.900;8.594;2023-11-19T09:44:47;12.90;99.90
13980;DHT22;73871;49.900;8.594;2023-11-19T09:47:16;12.80;99.90
13980;DHT22;73871;49.900;8.594;2023-11-19T09:49:43;12.70;99.90
13980;DHT22;73871;49.900;8.594;2023-11-19T09:52:11;12.90;99.90
13980;DHT22;73871;49.900;8.594;2023-11-19T09:54:37;13.00;99.90
13980;DHT22;73871;49.900;8.594;2023-11-19T09:57:06;12.90;99.90
13980;DHT22;73871;49.900;8.594;2023-11-19T09:59:34;12.90;99.90
13980;DHT22;73871;49.900;8.594;2023-11-19T10:02:02;12.90;99.90
13980;DHT22;73871;49.900;8.594;2023-11-19T10:04:30;12.90;99.90
13980;DHT22;73871;49.900;8.594;2023-11-19T10:06:59;12.80;99.90
13980;DHT22;73871;49.900;8.594;2023-11-19T10:09:25;12.80;99.90
13980;DHT22;73871;49.900;8.594;2023-11-19T10:11:52;12.80;99.90
13980;DHT22;73871;49.900;8.594;2023-11-19T10:14:23;12.80;99.90
13980;DHT22;73871;49.900;8.594;2023-11-19T10:16:50;12.80;99.90
13980;DHT22;73871;49.900;8.594;2023-11-19T10:19:20;12.90;99.90
13980;DHT22;73871;49.900;8.594;2023-11-19T10:21:47;13.10;99.90
13980;DHT22;73871;49.900;8.594;2023-11-19T10:24:14;13.20;99.90
13980;DHT22;73871;49.900;8.594;2023-11-19T10:26:57;13.30;99.90
13980;DHT22;73871;49.900;8.594;2023-11-19T10:29:24;13.30;99.90
13980;DHT22;73871;49.900;8.594;2023-11-19T10:31:57;13.30;99.90
13980;DHT22;73871;49.900;8.594;2023-11-19T10:34:44;13.20;99.90
13980;DHT22;73871;49.900;8.594;2023-11-19T10:37:30;13.20;99.90
13980;DHT22;73871;49.900;8.594;2023-11-19T10:39:59;13.20;99.90
13980;DHT22;73871;49.900;8.594;2023-11-19T10:42:26;13.20;99.90
13980;DHT22;73871;49.900;8.594;2023-11-19T10:44:53;13.20;99.90
13980;DHT22;73871;49.900;8.594;2023-11-19T10:47:20;13.30;99.90
13980;DHT22;73871;49.900;8.594;2023-11-19T10:50:05;13.40;99.90
13980;DHT22;73871;49.900;8.594;2023-11-19T10:52:33;13.50;99.90
13980;DHT22;73871;49.900;8.594;2023-11-19T10:55:00;13.60;99.90
13980;DHT22;73871;49.900;8.594;2023-11-19T10:57:30;13.80;99.90
13980;DHT22;73871;49.900;8.594;2023-11-19T11:00:01;14.00;99.90
13980;DHT22;73871;49.900;8.594;2023-11-19T11:02:33;14.00;99.90
13980;DHT22;73871;49.900;8.594;2023-11-19T11:05:02;14.20;99.90
13980;DHT22;73871;49.900;8.594;2023-11-19T11:07:31;14.40;99.90
13980;DHT22;73871;49.900;8.594;2023-11-19T11:10:07;14.60;99.90
13980;DHT22;73871;49.900;8.594;2023-11-19T11:12:36;14.60;99.90
13980;DHT22;73871;49.900;8.594;2023-11-19T11:15:06;14.60;99.90
13980;DHT22;73871;49.900;8.594;2023-11-19T11:17:36;14.60;99.90
13980;DHT22;73871;49.900;8.594;2023-11-19T11:20:06;14.80;99.90
13980;DHT22;73871;49.900;8.594;2023-11-19T11:22:57;15.10;99.90
13980;DHT22;73871;49.900;8.594;2023-11-19T11:28:52;15.50;99.90
13980;DHT22;73871;49.900;8.594;2023-11-19T11:39:35;16.00;99.90
13980;DHT22;73871;49.900;8.594;2023-11-19T11:50:14;15.50;99.90
13980;DHT22;73871;49.900;8.594;2023-11-19T11:58:19;15.50;99.90
13980;DHT22;73871;49.900;8.594;2023-11-19T12:00:48;15.40;99.90
13980;DHT22;73871;49.900;8.594;2023-11-19T12:03:15;15.60;99.90
13980;DHT22;73871;49.900;8.594;2023-11-19T12:05:45;15.80;99.90
13980;DHT22;73871;49.900;8.594;2023-11-19T12:08:15;15.90;99.90
13980;DHT22;73871;49.900;8.594;2023-11-19T12:10:51;16.00;99.90
13980;DHT22;73871;49.900;8.594;2023-11-19T12:13:20;16.20;99.90
13980;DHT22;73871;49.900;8.594;2023-11-19T12:18:28;16.40;99.90
13980;DHT22;73871;49.900;8.594;2023-11-19T12:20:55;16.30;99.90
13980;DHT22;73871;49.900;8.594;2023-11-19T12:23:23;16.20;99.90
13980;DHT22;73871;49.900;8.594;2023-11-19T12:25:50;16.10;99.90
13980;DHT22;73871;49.900;8.594;2023-11-19T12:28:17;15.90;99.90
13980;DHT22;73871;49.900;8.594;2023-11-19T12:30:45;15.90;99.90
13980;DHT22;73871;49.900;8.594;2023-11-19T12:33:13;15.90;99.90
13980;DHT22;73871;49.900;8.594;2023-11-19T12:35:45;15.90;99.90
13980;DHT22;73871;49.900;8.594;2023-11-19T12:38:25;15.80;99.90
13980;DHT22;73871;49.900;8.594;2023-11-19T12:41:06;15.60;99.90
13980;DHT22;73871;49.900;8.594;2023-11-19T12:43:33;15.60;99.90
13980;DHT22;73871;49.900;8.594;2023-11-19T12:46:21;15.60;99.90
13980;DHT22;73871;49.900;8.594;2023-11-19T12:48:51;15.60;99.90
13980;DHT22;73871;49.900;8.594;2023-11-19T12:51:18;15.70;99.90
13980;DHT22;73871;49.900;8.594;2023-11-19T12:53:50;15.80;99.90
13980;DHT22;73871;49.900;8.594;2023-11-19T12:56:21;15.80;99.90
13980;DHT22;73871;49.900;8.594;2023-11-19T12:58:48;15.70;99.90
13980;DHT22;73871;49.900;8.594;2023-11-19T13:01:17;15.60;99.90
13980;DHT22;73871;49.900;8.594;2023-11-19T13:03:51;15.50;99.90
13980;DHT22;73871;49.900;8.594;2023-11-19T13:06:22;15.40;99.90
13980;DHT22;73871;49.900;8.594;2023-11-19T13:08:52;15.40;99.90
13980;DHT22;73871;49.900;8.594;2023-11-19T13:11:31;15.30;99.90
13980;DHT22;73871;49.900;8.594;2023-11-19T13:14:01;15.30;99.90
13980;DHT22;73871;49.900;8.594;2023-11-19T13:16:37;15.10;99.90
13980;DHT22;73871;49.900;8.594;2023-11-19T13:19:17;15.00;99.90
13980;DHT22;73871;49.900;8.594;2023-11-19T13:21:47;15.10;99.90
13980;DHT22;73871;49.900;8.594;2023-11-19T13:24:15;15.10;99.90
13980;DHT22;73871;49.900;8.594;2023-11-19T13:26:42;15.40;99.90
13980;DHT22;73871;49.900;8.594;2023-11-19T13:29:09;15.60;99.90
13980;DHT22;73871;49.900;8.594;2023-11-19T13:31:38;15.70;99.90
13980;DHT22;73871;49.900;8.594;2023-11-19T13:34:05;15.80;99.90
13980;DHT22;73871;49.900;8.594;2023-11-19T13:36:34;15.70;99.90
13980;DHT22;73871;49.900;8.594;2023-11-19T13:39:01;15.70;99.90
13980;DHT22;73871;49.900;8.594;2023-11-19T13:41:28;15.70;99.90
13980;DHT22;73871;49.900;8.594;2023-11-19T13:43:54;15.70;99.90
13980;DHT22;73871;49.900;8.594;2023-11-19T13:46:21;15.70;99.90
13980;DHT22;73871;49.900;8.594;2023-11-19T13:48:48;15.50;99.90
13980;DHT22;73871;49.900;8.594;2023-11-19T13:51:16;15.30;99.90
13980;DHT22;73871;49.900;8.594;2023-11-19T13:53:43;15.10;99.90
13980;DHT22;73871;49.900;8.594;2023-11-19T13:56:13;14.90;99.90
13980;DHT22;73871;49.900;8.594;2023-11-19T13:58:40;14.80;99.90
13980;DHT22;73871;49.900;8.594;2023-11-19T14:01:07;14.80;99.90
13980;DHT22;73871;49.900;8.594;2023-11-19T14:03:34;14.80;99.90
13980;DHT22;73871;49.900;8.594;2023-11-19T14:06:01;14.90;99.90
13980;DHT22;73871;49.900;8.594;2023-11-19T14:08:30;14.90;99.90
13980;DHT22;73871;49.900;8.594;2023-11-19T14:10:57;14.90;99.90
13980;DHT22;73871;49.900;8.594;2023-11-19T14:13:24;14.90;99.90
13980;DHT22;73871;49.900;8.594;2023-11-19T14:15:51;14.80;99.90
13980;DHT22;73871;49.900;8.594;2023-11-19T14:18:18;14.80;99.90
13980;DHT22;73871;49.900;8.594;2023-11-19T14:20:45;14.70;99.90
13980;DHT22;73871;49.900;8.594;2023-11-19T14:23:11;14.60;99.90
13980;DHT22;73871;49.900;8.594;2023-11-19T14:25:39;14.50;99.90
13980;DHT22;73871;49.900;8.594;2023-11-19T14:28:05;14.50;99.90
13980;DHT22;73871;49.900;8.594;2023-11-19T14:30:33;14.70;99.90
13980;DHT22;73871;49.900;8.594;2023-11-19T14:33:01;14.70;99.90
13980;DHT22;73871;49.900;8.594;2023-11-19T14:35:28;14.70;99.90
13980;DHT22;73871;49.900;8.594;2023-11-19T14:37:56;14.70;99.90
13980;DHT22;73871;49.900;8.594;2023-11-19T14:40:23;14.60;99.90
13980;DHT22;73871;49.900;8.594;2023-11-19T14:42:55;14.50;99.90
13980;DHT22;73871;49.900;8.594;2023-11-19T14:45:21;14.50;99.90
13980;DHT22;73871;49.900;8.594;2023-11-19T14:47:49;14.40;99.90
13980;DHT22;73871;49.900;8.594;2023-11-19T14:50:16;14.20;99.90
13980;DHT22;73871;49.900;8.594;2023-11-19T14:52:42;14.20;99.90
13980;DHT22;73871;49.900;8.594;2023-11-19T14:55:09;14.20;99.90
13980;DHT22;73871;49.900;8.594;2023-11-19T14:57:38;14.20;99.90
13980;DHT22;73871;49.900;8.594;2023-11-19T15:00:06;14.10;99.90
13980;DHT22;73871;49.900;8.594;2023-11-19T15:02:42;14.10;99.90
13980;DHT22;73871;49.900;8.594;2023-11-19T15:05:09;14.00;99.90
13980;DHT22;73871;49.900;8.594;2023-11-19T15:07:39;13.90;99.90
13980;DHT22;73871;49.900;8.594;2023-11-19T15:10:09;13.80;99.90
13980;DHT22;73871;49.900;8.594;2023-11-19T15:12:38;13.70;99.90
13980;DHT22;73871;49.900;8.594;2023-11-19T15:15:10;13.60;99.90
13980;DHT22;73871;49.900;8.594;2023-11-19T15:17:39;13.50;99.90
13980;DHT22;73871;49.900;8.594;2023-11-19T15:20:07;13.40;99.90
13980;DHT22;73871;49.900;8.594;2023-11-19T15:22:33;13.30;99.90
13980;DHT22;73871;49.900;8.594;2023-11-19T15:25:00;13.30;99.90
13980;DHT22;73871;49.900;8.594;2023-11-19T15:27:27;13.20;99.90
13980;DHT22;73871;49.900;8.594;2023-11-19T15:29:54;13.10;99.90
13980;DHT22;73871;49.900;8.594;2023-11-19T15:32:21;13.00;99.90
13980;DHT22;73871;49.900;8.594;2023-11-19T15:34:48;12.90;99.90
13980;DHT22;73871;49.900;8.594;2023-11-19T15:37:15;12.90;99.90
13980;DHT22;73871;49.900;8.594;2023-11-19T15:39:42;12.90;99.90
13980;DHT22;73871;49.900;8.594;2023-11-19T15:42:08;12.80;99.90
13980;DHT22;73871;49.900;8.594;2023-11-19T15:44:37;12.80;99.90
13980;DHT22;73871;49.900;8.594;2023-11-19T15:47:04;12.70;99.90
13980;DHT22;73871;49.900;8.594;2023-11-19T15:49:31;12.70;99.90
13980;DHT22;73871;49.900;8.594;2023-11-19T15:51:58;12.60;99.90
13980;DHT22;73871;49.900;8.594;2023-11-19T15:54:26;12.60;99.90
13980;DHT22;73871;49.900;8.594;2023-11-19T15:56:53;12.60;99.90
13980;DHT22;73871;49.900;8.594;2023-11-19T15:59:19;12.60;99.90
13980;DHT22;73871;49.900;8.594;2023-11-19T16:01:47;12.60;99.90
13980;DHT22;73871;49.900;8.594;2023-11-19T16:04:14;12.60;99.90
13980;DHT22;73871;49.900;8.594;2023-11-19T16:06:41;12.50;99.90
13980;DHT22;73871;49.900;8.594;2023-11-19T16:09:08;12.50;99.90